Time;durP1;ratioP1;P1;durP2;ratioP2;P2;SDS_P1;SDS_P2;PMS_P1;PMS_P2;Temp;Humidity;BMP_temperature;BMP_pressure;BME280_temperature;BME280_humidity;BME280_pressure;Samples;Min_cycle;Max_cycle;Signal;HPM_P1;HPM_P2
2023/09/12 00:05:21;;;;;;;15.60;13.30;;;;;;;16.11;83.66;99186.84;435344;1256;139381;-63
2023/09/12 00:15:27;;;;;;;21.20;13.10;;;;;;;16.03;83.60;99181.08;435245;1256;140441;-63
2023/09/12 00:25:33;;;;;;;17.50;14.10;;;;;;;15.93;83.54;99180.57;435361;1254;139123;-63
2023/09/12 00:35:39;;;;;;;15.10;12.90;;;;;;;15.82;83.71;99178.00;435011;1254;139289;-63
2023/09/12 00:45:44;;;;;;;14.70;12.60;;;;;;;15.73;83.90;99175.88;435139;1253;140761;-63
2023/09/12 00:55:56;;;;;;;17.20;13.30;;;;;;;15.63;84.10;99178.02;435556;1253;140215;-63
2023/09/12 01:06:03;;;;;;;13.50;11.40;;;;;;;15.53;84.25;99180.52;437264;1254;139328;-63
2023/09/12 01:16:09;;;;;;;18.50;14.10;;;;;;;15.38;84.33;99180.07;435244;1256;140270;-65
2023/09/12 01:26:30;;;;;;;16.90;14.70;;;;;;;15.25;85.65;99183.84;435838;1254;139380;-64
2023/09/12 01:36:36;;;;;;;18.60;14.30;;;;;;;15.16;86.42;99182.23;435773;1252;140250;-64
2023/09/12 01:46:42;;;;;;;19.70;14.50;;;;;;;15.06;87.12;99183.11;435216;1256;140251;-66
2023/09/12 01:56:48;;;;;;;16.70;14.60;;;;;;;14.99;88.36;99186.33;435244;1253;140192;-66
2023/09/12 02:06:54;;;;;;;16.00;14.20;;;;;;;14.90;88.32;99188.17;435452;1256;139141;-64
2023/09/12 02:17:00;;;;;;;16.70;15.00;;;;;;;14.79;88.65;99191.13;435115;1254;141316;-63
2023/09/12 02:27:06;;;;;;;14.50;13.10;;;;;;;14.67;88.38;99188.77;435174;1254;139954;-65
2023/09/12 02:37:12;;;;;;;17.80;13.30;;;;;;;14.56;88.56;99193.20;435320;1256;141500;-63
2023/09/12 02:47:18;;;;;;;15.60;14.00;;;;;;;14.50;88.81;99192.88;435454;1253;139528;-63
2023/09/12 02:57:24;;;;;;;16.50;12.70;;;;;;;14.38;88.52;99190.38;435340;1256;139471;-63
2023/09/12 03:07:30;;;;;;;14.60;13.10;;;;;;;14.32;88.68;99192.67;435593;1254;138998;-64
2023/09/12 03:17:36;;;;;;;14.90;13.20;;;;;;;14.27;88.95;99188.50;435909;1256;139599;-64
2023/09/12 03:27:41;;;;;;;15.20;13.60;;;;;;;14.24;89.33;99189.46;436273;1254;141202;-64
2023/09/12 03:37:47;;;;;;;24.70;17.50;;;;;;;14.20;90.25;99188.23;435883;1256;139158;-64
2023/09/12 03:47:53;;;;;;;15.70;14.10;;;;;;;14.22;91.36;99182.98;435309;1256;140680;-63
2023/09/12 03:57:59;;;;;;;20.10;15.60;;;;;;;14.17;90.72;99189.20;435276;1256;139242;-65
2023/09/12 04:08:06;;;;;;;24.80;17.00;;;;;;;14.11;90.62;99198.84;435383;1253;139180;-63
2023/09/12 04:18:12;;;;;;;29.20;15.50;;;;;;;14.08;90.81;99198.17;435780;1256;140853;-63
2023/09/12 04:28:18;;;;;;;21.50;15.80;;;;;;;14.11;90.77;99197.92;435590;1256;139248;-64
2023/09/12 04:38:24;;;;;;;30.30;18.90;;;;;;;14.18;90.62;99201.98;435587;1256;139590;-65
2023/09/12 04:48:31;;;;;;;86.80;21.10;;;;;;;14.38;90.91;99212.39;436691;1256;139064;-64
2023/09/12 04:58:37;;;;;;;25.10;14.90;;;;;;;14.71;90.68;99216.58;435408;1256;140666;-63
2023/09/12 05:08:43;;;;;;;17.40;14.20;;;;;;;15.09;90.34;99219.70;435593;1256;139593;-63
2023/09/12 05:18:50;;;;;;;59.00;18.70;;;;;;;16.08;91.03;99226.59;435292;1255;139174;-64
2023/09/12 05:28:56;;;;;;;28.60;16.00;;;;;;;18.20;91.59;99228.20;435206;1256;139124;-64
2023/09/12 05:39:03;;;;;;;20.50;15.10;;;;;;;22.58;86.81;99227.55;436087;1256;139654;-66
2023/09/12 05:49:09;;;;;;;22.60;15.20;;;;;;;26.15;75.62;99235.52;435568;1254;139765;-65
2023/09/12 05:59:15;;;;;;;16.20;14.40;;;;;;;29.70;65.59;99234.18;435628;1256;140442;-65
2023/09/12 06:09:21;;;;;;;20.60;14.60;;;;;;;33.09;57.82;99226.86;435585;1256;138970;-66
2023/09/12 06:19:27;;;;;;;21.60;14.80;;;;;;;35.76;49.48;99236.86;435053;1256;138329;-67
2023/09/12 06:29:33;;;;;;;18.30;14.90;;;;;;;37.82;43.86;99238.33;434931;1257;139089;-64
2023/09/12 06:39:38;;;;;;;18.40;13.40;;;;;;;39.59;39.31;99240.35;434834;1257;138639;-70
2023/09/12 06:49:44;;;;;;;15.20;13.70;;;;;;;41.83;35.83;99242.49;435037;1254;138537;-70
2023/09/12 06:59:58;;;;;;;14.20;11.90;;;;;;;43.83;32.69;99237.02;435479;1256;139048;-68
2023/09/12 07:10:06;;;;;;;23.30;12.60;;;;;;;45.58;29.98;99233.32;437042;1257;138570;-67
2023/09/12 07:20:29;;;;;;;16.00;11.80;;;;;;;47.00;27.48;99228.80;435181;1255;223823;-70
2023/09/12 07:30:36;;;;;;;10.50;9.70;;;;;;;48.40;25.54;99233.10;435709;1257;138475;-70
2023/09/12 07:40:43;;;;;;;14.00;10.30;;;;;;;50.16;23.92;99236.66;435897;1254;138907;-67
2023/09/12 07:50:49;;;;;;;12.70;9.10;;;;;;;51.14;21.91;99239.02;436427;1256;138426;-67
2023/09/12 08:00:55;;;;;;;10.10;8.50;;;;;;;51.67;20.84;99232.27;435841;1257;138690;-71
2023/09/12 08:11:01;;;;;;;12.90;8.70;;;;;;;52.15;20.21;99229.66;437699;1256;139527;-70
2023/09/12 08:21:07;;;;;;;10.10;8.10;;;;;;;53.13;19.72;99232.39;439125;1257;138876;-66
2023/09/12 08:31:13;;;;;;;18.10;9.50;;;;;;;53.25;19.04;99231.33;436879;1254;138234;-71
2023/09/12 08:41:19;;;;;;;11.00;8.60;;;;;;;51.89;19.24;99223.61;438994;1253;138412;-75
2023/09/12 08:51:26;;;;;;;6.60;5.70;;;;;;;46.99;19.83;99220.23;438395;1254;138120;-74
2023/09/12 09:01:33;;;;;;;14.20;7.60;;;;;;;42.40;21.32;99214.20;438170;1257;138402;-68
2023/09/12 09:11:39;;;;;;;11.10;7.50;;;;;;;39.35;23.36;99210.79;438068;1254;138085;-76
2023/09/12 09:21:47;;;;;;;12.20;7.10;;;;;;;37.06;25.16;99215.96;438645;1254;142553;-77
2023/09/12 09:31:54;;;;;;;7.40;5.80;;;;;;;35.42;26.60;99215.04;439426;1254;139326;-76
2023/09/12 09:41:59;;;;;;;8.60;7.90;;;;;;;34.41;27.83;99210.86;438686;1256;138882;-74
2023/09/12 09:52:06;;;;;;;;;;;;;;;33.67;28.77;99209.66;440106;1256;138657;-74
2023/09/12 10:02:18;;;;;;;9.30;7.10;;;;;;;33.05;29.61;99203.02;438464;1253;124488;-75
2023/09/12 10:12:25;;;;;;;8.80;6.80;;;;;;;32.46;30.42;99200.77;436805;1254;138835;-77
2023/09/12 10:22:36;;;;;;;7.30;6.50;;;;;;;32.04;31.31;99197.13;438182;1252;138883;-70
2023/09/12 10:32:46;;;;;;;8.90;6.10;;;;;;;31.55;31.71;99194.11;437944;1254;138906;-67
2023/09/12 10:42:56;;;;;;;7.90;7.00;;;;;;;31.03;32.42;99194.56;435635;1254;138119;-68
2023/09/12 10:53:13;;;;;;;6.50;5.90;;;;;;;30.63;32.95;99194.45;435573;1254;138539;-67
2023/09/12 11:03:40;;;;;;;6.30;5.80;;;;;;;30.27;33.42;99191.45;436209;1256;139360;-68
2023/09/12 11:13:47;;;;;;;6.80;6.20;;;;;;;30.02;33.45;99190.77;435927;1253;138185;-67
2023/09/12 11:23:58;;;;;;;11.80;6.70;;;;;;;29.78;33.58;99184.55;435408;1256;138037;-68
2023/09/12 11:34:04;;;;;;;7.00;6.30;;;;;;;29.58;34.15;99184.95;435683;1254;139162;-68
2023/09/12 11:44:10;;;;;;;15.00;6.30;;;;;;;29.45;34.52;99186.57;435804;1255;138253;-67
2023/09/12 11:54:18;;;;;;;9.60;7.80;;;;;;;29.33;34.78;99185.11;435826;1254;138966;-68
2023/09/12 12:04:26;;;;;;;6.00;5.30;;;;;;;29.20;35.01;99184.97;436212;1253;139846;-69
2023/09/12 12:14:36;;;;;;;8.80;6.70;;;;;;;29.05;35.22;99180.11;435719;1253;138752;-66
2023/09/12 12:24:45;;;;;;;17.30;7.50;;;;;;;28.94;35.37;99172.30;435691;1256;138381;-68
2023/09/12 12:34:51;;;;;;;6.50;5.90;;;;;;;28.81;35.65;99171.72;435676;1256;139112;-70
2023/09/12 12:45:21;;;;;;;9.20;6.60;;;;;;;28.68;35.80;99161.82;435762;1256;138183;-71
2023/09/12 12:55:28;;;;;;;7.30;6.60;;;;;;;28.57;36.17;99149.21;436427;1253;138476;-71
2023/09/12 13:05:32;;;;;;;;;;;;;;;28.47;36.17;99149.63;436059;1256;138460;-70
2023/09/12 13:15:38;;;;;;;7.10;6.50;;;;;;;28.37;36.47;99143.48;435881;1253;124785;-66
2023/09/12 13:25:45;;;;;;;7.70;6.70;;;;;;;28.33;37.02;99142.65;435952;1256;137956;-67
2023/09/12 13:35:51;;;;;;;7.60;6.40;;;;;;;28.25;37.09;99148.61;436114;1254;138101;-67
2023/09/12 13:45:57;;;;;;;14.70;7.80;;;;;;;28.20;37.51;99155.93;436199;1256;138237;-69
2023/09/12 13:56:03;;;;;;;7.70;6.20;;;;;;;28.21;37.49;99153.30;436092;1253;139890;-67
2023/09/12 14:06:09;;;;;;;6.20;5.40;;;;;;;28.25;37.83;99154.58;436796;1254;139433;-66
2023/09/12 14:16:15;;;;;;;9.60;7.20;;;;;;;28.25;37.54;99146.27;436341;1256;138221;-65
2023/09/12 14:26:22;;;;;;;10.30;6.80;;;;;;;28.20;37.80;99141.42;436190;1253;139403;-66
2023/09/12 14:36:28;;;;;;;8.20;6.30;;;;;;;28.12;37.80;99142.23;435848;1256;138357;-66
2023/09/12 14:46:33;;;;;;;6.80;6.20;;;;;;;28.01;37.44;99142.99;435783;1256;138872;-66
2023/09/12 14:56:41;;;;;;;7.00;5.90;;;;;;;27.89;37.53;99144.31;435716;1254;140344;-65
2023/09/12 15:06:47;;;;;;;12.50;6.20;;;;;;;27.73;37.91;99146.74;435818;1253;138142;-66
2023/09/12 15:16:53;;;;;;;13.30;6.00;;;;;;;27.53;38.65;99148.28;435743;1256;138976;-66
2023/09/12 15:26:59;;;;;;;7.50;6.80;;;;;;;27.34;39.07;99144.49;435511;1253;138436;-66
2023/09/12 15:37:13;;;;;;;9.30;7.70;;;;;;;27.64;38.96;99142.89;435384;1253;138165;-67
2023/09/12 15:47:21;;;;;;;10.40;6.90;;;;;;;27.57;38.89;99142.91;435357;1253;138080;-66
2023/09/12 15:57:28;;;;;;;12.70;6.70;;;;;;;27.16;39.67;99149.17;435255;1257;138330;-65
2023/09/12 16:07:34;;;;;;;13.10;8.50;;;;;;;26.79;40.53;99146.29;435533;1254;138284;-64
2023/09/12 16:17:43;;;;;;;19.50;7.70;;;;;;;26.36;42.84;99147.45;435026;1253;139019;-63
2023/09/12 16:27:49;;;;;;;15.30;8.30;;;;;;;25.89;44.76;99150.77;436059;1253;138365;-64
2023/09/12 16:37:55;;;;;;;10.20;7.60;;;;;;;25.43;46.55;99149.51;435482;1253;138205;-63
2023/09/12 16:48:02;;;;;;;14.60;9.30;;;;;;;24.91;47.93;99142.54;435424;1257;138193;-63
2023/09/12 16:58:08;;;;;;;16.60;9.40;;;;;;;24.43;49.93;99144.55;435642;1253;138229;-63
2023/09/12 17:08:14;;;;;;;20.10;10.60;;;;;;;23.94;52.13;99149.27;435445;1257;138916;-63
2023/09/12 17:18:20;;;;;;;15.40;11.00;;;;;;;23.41;54.02;99157.20;435410;1257;139927;-64
2023/09/12 17:28:26;;;;;;;19.50;11.50;;;;;;;22.91;56.08;99162.67;435390;1257;138879;-64
2023/09/12 17:38:32;;;;;;;17.70;11.30;;;;;;;22.43;57.74;99164.00;435652;1257;140343;-63
2023/09/12 17:48:40;;;;;;;15.40;12.10;;;;;;;21.96;59.55;99164.52;435954;1253;140341;-63
2023/09/12 17:58:47;;;;;;;20.80;12.50;;;;;;;21.60;60.67;99167.91;435570;1254;139574;-64
2023/09/12 18:08:53;;;;;;;19.70;12.40;;;;;;;21.26;62.05;99171.29;435441;1253;140050;-65
2023/09/12 18:18:59;;;;;;;16.10;11.80;;;;;;;20.91;62.60;99169.11;435789;1253;139362;-65
2023/09/12 18:29:05;;;;;;;24.80;14.30;;;;;;;20.81;61.90;99166.95;435530;1257;140748;-63
2023/09/12 18:39:11;;;;;;;16.20;11.70;;;;;;;20.73;63.01;99169.73;435465;1254;139731;-63
2023/09/12 18:49:17;;;;;;;20.70;13.80;;;;;;;20.38;63.94;99175.05;435435;1257;139233;-64
2023/09/12 18:59:23;;;;;;;26.90;15.30;;;;;;;20.07;64.97;99179.58;435739;1257;139278;-64
2023/09/12 19:09:28;;;;;;;24.80;16.00;;;;;;;19.80;65.44;99188.19;435692;1253;140056;-63
2023/09/12 19:19:34;;;;;;;24.00;14.90;;;;;;;19.64;65.24;99189.77;435298;1256;140245;-64
2023/09/12 19:29:54;;;;;;;21.10;15.10;;;;;;;19.57;65.39;99189.16;435498;1256;139565;-64
2023/09/12 19:40:00;;;;;;;17.80;13.70;;;;;;;19.51;65.59;99186.30;435575;1253;139193;-61
2023/09/12 19:50:10;;;;;;;15.30;13.40;;;;;;;19.43;66.27;99186.50;435456;1257;139032;-63
2023/09/12 20:00:17;;;;;;;16.10;13.80;;;;;;;19.21;67.09;99193.20;435956;1257;139387;-64
2023/09/12 20:10:23;;;;;;;19.50;12.60;;;;;;;18.96;67.82;99192.30;435969;1256;143965;-63
2023/09/12 20:20:29;;;;;;;17.70;13.40;;;;;;;18.70;68.41;99196.17;435289;1257;139060;-63
2023/09/12 20:30:34;;;;;;;18.60;15.00;;;;;;;18.45;69.19;99191.65;435406;1253;139868;-63
2023/09/12 20:40:40;;;;;;;19.10;13.90;;;;;;;18.20;70.01;99192.10;435376;1253;140123;-63
2023/09/12 20:50:46;;;;;;;23.20;16.20;;;;;;;18.00;70.94;99187.02;435341;1253;139292;-63
2023/09/12 21:00:52;;;;;;;15.40;13.50;;;;;;;17.86;71.62;99188.23;435438;1253;139158;-63
2023/09/12 21:10:58;;;;;;;20.90;15.70;;;;;;;17.71;72.39;99187.10;435664;1253;141130;-63
2023/09/12 21:21:04;;;;;;;20.80;15.80;;;;;;;17.58;72.64;99190.10;435364;1252;139377;-62
2023/09/12 21:31:09;;;;;;;18.40;14.10;;;;;;;17.42;73.07;99192.98;435514;1256;139051;-63
2023/09/12 21:41:15;;;;;;;21.80;16.60;;;;;;;17.22;73.79;99197.21;435301;1257;139557;-63
2023/09/12 21:51:21;;;;;;;21.20;17.70;;;;;;;17.14;74.97;99196.10;435262;1257;139317;-64
2023/09/12 22:01:28;;;;;;;25.00;17.10;;;;;;;17.03;75.43;99197.98;435641;1256;139675;-65
2023/09/12 22:11:34;;;;;;;22.50;15.80;;;;;;;16.93;75.80;99195.59;436026;1254;139571;-64
2023/09/12 22:21:40;;;;;;;22.50;16.20;;;;;;;16.79;75.73;99200.81;436009;1253;139342;-65
2023/09/12 22:31:46;;;;;;;20.00;17.10;;;;;;;16.65;76.50;99202.45;435956;1253;140398;-63
2023/09/12 22:41:52;;;;;;;19.60;17.70;;;;;;;16.55;77.05;99208.39;435669;1254;139521;-65
2023/09/12 22:51:58;;;;;;;20.00;16.80;;;;;;;16.43;77.14;99204.55;435587;1253;139397;-64
2023/09/12 23:02:04;;;;;;;20.40;18.00;;;;;;;16.32;77.98;99200.45;435515;1257;140785;-64
2023/09/12 23:12:10;;;;;;;24.40;18.50;;;;;;;16.23;78.49;99196.88;435460;1253;139912;-66
2023/09/12 23:22:16;;;;;;;22.90;19.90;;;;;;;16.14;79.17;99192.73;435422;1257;139278;-64
2023/09/12 23:32:22;;;;;;;23.10;20.40;;;;;;;16.06;79.63;99185.26;435437;1257;139417;-64
2023/09/12 23:42:28;;;;;;;25.60;20.80;;;;;;;15.95;79.84;99178.95;435469;1253;139372;-65
2023/09/12 23:52:34;;;;;;;26.60;21.60;;;;;;;15.85;79.98;99176.36;435854;1257;140352;-67
